sensor_id;sensor_type;location;lat;lon;timestamp;P1;durP1;ratioP1;P2;durP2;ratioP2
313;SDS011;143;51.634;7.112;2023-07-20T00:00:05;9.50;;;4.50;;
313;SDS011;143;51.634;7.112;2023-07-20T00:02:31;7.70;;;4.37;;
313;SDS011;143;51.634;7.112;2023-07-20T00:04:57;10.63;;;5.17;;
313;SDS011;143;51.634;7.112;2023-07-20T00:07:23;8.63;;;5.50;;
313;SDS011;143;51.634;7.112;2023-07-20T00:09:49;7.87;;;4.50;;
313;SDS011;143;51.634;7.112;2023-07-20T00:12:15;9.33;;;4.90;;
313;SDS011;143;51.634;7.112;2023-07-20T00:14:41;10.63;;;4.80;;
313;SDS011;143;51.634;7.112;2023-07-20T00:17:06;6.80;;;5.00;;
313;SDS011;143;51.634;7.112;2023-07-20T00:19:32;12.77;;;4.87;;
313;SDS011;143;51.634;7.112;2023-07-20T00:21:58;13.17;;;6.30;;
313;SDS011;143;51.634;7.112;2023-07-20T00:24:24;11.90;;;5.57;;
313;SDS011;143;51.634;7.112;2023-07-20T00:26:49;12.53;;;5.37;;
313;SDS011;143;51.634;7.112;2023-07-20T00:29:15;12.80;;;6.37;;
313;SDS011;143;51.634;7.112;2023-07-20T00:31:41;14.77;;;7.33;;
313;SDS011;143;51.634;7.112;2023-07-20T00:34:08;11.00;;;5.10;;
313;SDS011;143;51.634;7.112;2023-07-20T00:36:34;11.97;;;4.80;;
313;SDS011;143;51.634;7.112;2023-07-20T00:38:59;10.17;;;6.43;;
313;SDS011;143;51.634;7.112;2023-07-20T00:41:25;15.20;;;6.23;;
313;SDS011;143;51.634;7.112;2023-07-20T00:43:54;12.53;;;6.07;;
313;SDS011;143;51.634;7.112;2023-07-20T00:46:21;11.93;;;5.23;;
313;SDS011;143;51.634;7.112;2023-07-20T00:48:48;10.43;;;5.07;;
313;SDS011;143;51.634;7.112;2023-07-20T00:51:14;9.90;;;5.37;;
313;SDS011;143;51.634;7.112;2023-07-20T00:53:40;10.70;;;6.97;;
313;SDS011;143;51.634;7.112;2023-07-20T00:56:06;12.60;;;6.40;;
313;SDS011;143;51.634;7.112;2023-07-20T00:58:33;14.10;;;6.57;;
313;SDS011;143;51.634;7.112;2023-07-20T01:01:00;9.60;;;5.93;;
313;SDS011;143;51.634;7.112;2023-07-20T01:03:25;19.67;;;7.07;;
313;SDS011;143;51.634;7.112;2023-07-20T01:05:54;9.40;;;5.80;;
313;SDS011;143;51.634;7.112;2023-07-20T01:11:06;10.30;;;6.40;;
313;SDS011;143;51.634;7.112;2023-07-20T01:14:00;12.87;;;6.60;;
313;SDS011;143;51.634;7.112;2023-07-20T01:16:27;12.07;;;6.97;;
313;SDS011;143;51.634;7.112;2023-07-20T01:18:53;11.87;;;6.53;;
313;SDS011;143;51.634;7.112;2023-07-20T01:21:24;14.63;;;6.80;;
313;SDS011;143;51.634;7.112;2023-07-20T01:27:22;10.30;;;6.80;;
313;SDS011;143;51.634;7.112;2023-07-20T01:32:31;10.00;;;6.67;;
313;SDS011;143;51.634;7.112;2023-07-20T01:34:59;10.30;;;5.93;;
313;SDS011;143;51.634;7.112;2023-07-20T01:37:26;12.80;;;6.80;;
313;SDS011;143;51.634;7.112;2023-07-20T01:39:54;12.03;;;6.37;;
313;SDS011;143;51.634;7.112;2023-07-20T01:42:24;18.87;;;7.47;;
313;SDS011;143;51.634;7.112;2023-07-20T01:44:53;11.07;;;6.63;;
313;SDS011;143;51.634;7.112;2023-07-20T01:47:18;9.00;;;6.20;;
313;SDS011;143;51.634;7.112;2023-07-20T01:49:44;10.53;;;6.70;;
313;SDS011;143;51.634;7.112;2023-07-20T01:52:10;15.10;;;7.00;;
313;SDS011;143;51.634;7.112;2023-07-20T01:54:36;16.67;;;6.80;;
313;SDS011;143;51.634;7.112;2023-07-20T01:57:02;14.00;;;7.40;;
313;SDS011;143;51.634;7.112;2023-07-20T01:59:28;20.80;;;6.40;;
313;SDS011;143;51.634;7.112;2023-07-20T02:01:53;17.33;;;5.80;;
313;SDS011;143;51.634;7.112;2023-07-20T02:04:19;21.63;;;6.90;;
313;SDS011;143;51.634;7.112;2023-07-20T02:06:45;13.23;;;7.00;;
313;SDS011;143;51.634;7.112;2023-07-20T02:09:11;13.20;;;8.57;;
313;SDS011;143;51.634;7.112;2023-07-20T02:11:36;18.73;;;7.67;;
313;SDS011;143;51.634;7.112;2023-07-20T02:14:02;9.60;;;7.17;;
313;SDS011;143;51.634;7.112;2023-07-20T02:16:28;15.63;;;7.93;;
313;SDS011;143;51.634;7.112;2023-07-20T02:18:53;20.80;;;8.10;;
313;SDS011;143;51.634;7.112;2023-07-20T02:21:21;21.27;;;7.87;;
313;SDS011;143;51.634;7.112;2023-07-20T02:23:47;15.47;;;8.67;;
313;SDS011;143;51.634;7.112;2023-07-20T02:26:13;23.83;;;7.97;;
313;SDS011;143;51.634;7.112;2023-07-20T02:28:39;17.90;;;9.00;;
313;SDS011;143;51.634;7.112;2023-07-20T02:31:06;16.20;;;8.70;;
313;SDS011;143;51.634;7.112;2023-07-20T02:33:32;14.60;;;8.73;;
313;SDS011;143;51.634;7.112;2023-07-20T02:35:57;16.30;;;8.60;;
313;SDS011;143;51.634;7.112;2023-07-20T02:38:23;13.70;;;8.37;;
313;SDS011;143;51.634;7.112;2023-07-20T02:40:49;19.70;;;10.60;;
313;SDS011;143;51.634;7.112;2023-07-20T02:43:15;13.70;;;9.00;;
313;SDS011;143;51.634;7.112;2023-07-20T02:45:41;17.57;;;9.27;;
313;SDS011;143;51.634;7.112;2023-07-20T02:48:09;20.40;;;9.77;;
313;SDS011;143;51.634;7.112;2023-07-20T02:50:35;15.60;;;9.00;;
313;SDS011;143;51.634;7.112;2023-07-20T02:53:01;19.60;;;9.87;;
313;SDS011;143;51.634;7.112;2023-07-20T02:55:27;22.93;;;9.67;;
313;SDS011;143;51.634;7.112;2023-07-20T02:57:53;15.40;;;10.00;;
313;SDS011;143;51.634;7.112;2023-07-20T03:00:19;19.37;;;10.63;;
313;SDS011;143;51.634;7.112;2023-07-20T03:02:45;13.70;;;9.03;;
313;SDS011;143;51.634;7.112;2023-07-20T03:05:14;15.23;;;10.40;;
313;SDS011;143;51.634;7.112;2023-07-20T03:07:41;14.97;;;9.43;;
313;SDS011;143;51.634;7.112;2023-07-20T03:10:08;19.90;;;9.87;;
313;SDS011;143;51.634;7.112;2023-07-20T03:12:35;18.40;;;10.80;;
313;SDS011;143;51.634;7.112;2023-07-20T03:15:04;21.07;;;9.27;;
313;SDS011;143;51.634;7.112;2023-07-20T03:17:30;21.37;;;11.67;;
313;SDS011;143;51.634;7.112;2023-07-20T03:19:55;15.20;;;10.63;;
313;SDS011;143;51.634;7.112;2023-07-20T03:22:21;15.73;;;10.00;;
313;SDS011;143;51.634;7.112;2023-07-20T03:24:47;21.50;;;9.77;;
313;SDS011;143;51.634;7.112;2023-07-20T03:27:13;13.50;;;8.63;;
313;SDS011;143;51.634;7.112;2023-07-20T03:29:38;15.80;;;10.60;;
313;SDS011;143;51.634;7.112;2023-07-20T03:32:04;16.67;;;11.00;;
313;SDS011;143;51.634;7.112;2023-07-20T03:34:30;14.53;;;10.20;;
313;SDS011;143;51.634;7.112;2023-07-20T03:36:56;21.30;;;11.00;;
313;SDS011;143;51.634;7.112;2023-07-20T03:39:22;16.37;;;10.37;;
313;SDS011;143;51.634;7.112;2023-07-20T03:41:48;13.93;;;9.90;;
313;SDS011;143;51.634;7.112;2023-07-20T03:44:13;21.13;;;11.07;;
313;SDS011;143;51.634;7.112;2023-07-20T03:46:39;15.13;;;9.53;;
313;SDS011;143;51.634;7.112;2023-07-20T03:49:05;18.47;;;10.40;;
313;SDS011;143;51.634;7.112;2023-07-20T03:51:31;11.87;;;9.70;;
313;SDS011;143;51.634;7.112;2023-07-20T03:53:57;17.33;;;11.57;;
313;SDS011;143;51.634;7.112;2023-07-20T03:56:23;16.33;;;10.20;;
313;SDS011;143;51.634;7.112;2023-07-20T03:58:49;16.90;;;10.40;;
313;SDS011;143;51.634;7.112;2023-07-20T04:01:15;18.60;;;11.37;;
313;SDS011;143;51.634;7.112;2023-07-20T04:03:41;16.93;;;10.17;;
313;SDS011;143;51.634;7.112;2023-07-20T04:06:08;14.63;;;11.60;;
313;SDS011;143;51.634;7.112;2023-07-20T04:08:34;15.73;;;11.37;;
313;SDS011;143;51.634;7.112;2023-07-20T04:11:03;16.70;;;10.30;;
313;SDS011;143;51.634;7.112;2023-07-20T04:13:29;14.20;;;9.93;;
313;SDS011;143;51.634;7.112;2023-07-20T04:15:58;13.07;;;10.03;;
313;SDS011;143;51.634;7.112;2023-07-20T04:18:23;13.13;;;10.10;;
313;SDS011;143;51.634;7.112;2023-07-20T04:20:49;14.47;;;9.47;;
313;SDS011;143;51.634;7.112;2023-07-20T04:23:15;18.30;;;9.77;;
313;SDS011;143;51.634;7.112;2023-07-20T04:25:41;16.13;;;9.93;;
313;SDS011;143;51.634;7.112;2023-07-20T04:28:07;14.20;;;9.30;;
313;SDS011;143;51.634;7.112;2023-07-20T04:30:34;11.97;;;8.90;;
313;SDS011;143;51.634;7.112;2023-07-20T04:33:01;10.83;;;8.77;;
313;SDS011;143;51.634;7.112;2023-07-20T04:35:48;15.50;;;9.20;;
313;SDS011;143;51.634;7.112;2023-07-20T04:38:14;18.13;;;8.90;;
313;SDS011;143;51.634;7.112;2023-07-20T04:40:42;10.83;;;8.00;;
313;SDS011;143;51.634;7.112;2023-07-20T04:43:09;10.37;;;8.03;;
313;SDS011;143;51.634;7.112;2023-07-20T04:45:34;9.53;;;8.03;;
313;SDS011;143;51.634;7.112;2023-07-20T04:48:00;11.80;;;8.20;;
313;SDS011;143;51.634;7.112;2023-07-20T04:50:26;11.60;;;7.57;;
313;SDS011;143;51.634;7.112;2023-07-20T04:52:53;9.13;;;7.40;;
313;SDS011;143;51.634;7.112;2023-07-20T04:55:18;10.67;;;7.50;;
313;SDS011;143;51.634;7.112;2023-07-20T04:57:44;10.90;;;7.93;;
313;SDS011;143;51.634;7.112;2023-07-20T05:00:10;11.80;;;7.50;;
313;SDS011;143;51.634;7.112;2023-07-20T05:02:38;12.30;;;7.90;;
313;SDS011;143;51.634;7.112;2023-07-20T05:05:03;11.93;;;8.80;;
313;SDS011;143;51.634;7.112;2023-07-20T05:07:31;13.30;;;9.83;;
313;SDS011;143;51.634;7.112;2023-07-20T05:09:57;16.80;;;9.20;;
313;SDS011;143;51.634;7.112;2023-07-20T05:12:23;14.47;;;9.97;;
313;SDS011;143;51.634;7.112;2023-07-20T05:14:48;14.00;;;9.90;;
313;SDS011;143;51.634;7.112;2023-07-20T05:17:14;12.70;;;9.83;;
313;SDS011;143;51.634;7.112;2023-07-20T05:19:40;12.77;;;8.73;;
313;SDS011;143;51.634;7.112;2023-07-20T05:22:05;10.40;;;7.77;;
313;SDS011;143;51.634;7.112;2023-07-20T05:24:31;9.90;;;7.33;;
313;SDS011;143;51.634;7.112;2023-07-20T05:26:57;8.60;;;6.80;;
313;SDS011;143;51.634;7.112;2023-07-20T05:29:23;9.00;;;7.47;;
313;SDS011;143;51.634;7.112;2023-07-20T05:31:50;9.30;;;6.70;;
313;SDS011;143;51.634;7.112;2023-07-20T05:34:16;9.10;;;6.00;;
313;SDS011;143;51.634;7.112;2023-07-20T05:36:41;8.30;;;5.87;;
313;SDS011;143;51.634;7.112;2023-07-20T05:39:07;8.30;;;5.27;;
313;SDS011;143;51.634;7.112;2023-07-20T05:41:33;7.00;;;5.47;;
313;SDS011;143;51.634;7.112;2023-07-20T05:43:58;6.93;;;4.60;;
313;SDS011;143;51.634;7.112;2023-07-20T05:46:24;6.60;;;5.37;;
313;SDS011;143;51.634;7.112;2023-07-20T05:48:50;8.20;;;6.23;;
313;SDS011;143;51.634;7.112;2023-07-20T05:51:15;7.23;;;5.70;;
313;SDS011;143;51.634;7.112;2023-07-20T05:53:41;9.50;;;5.97;;
313;SDS011;143;51.634;7.112;2023-07-20T05:56:06;8.17;;;5.57;;
313;SDS011;143;51.634;7.112;2023-07-20T05:58:35;9.10;;;5.37;;
313;SDS011;143;51.634;7.112;2023-07-20T06:01:03;7.50;;;5.20;;
313;SDS011;143;51.634;7.112;2023-07-20T06:03:30;6.20;;;4.70;;
313;SDS011;143;51.634;7.112;2023-07-20T06:05:59;7.00;;;4.83;;
313;SDS011;143;51.634;7.112;2023-07-20T06:08:26;8.53;;;5.43;;
313;SDS011;143;51.634;7.112;2023-07-20T06:10:55;6.37;;;4.93;;
313;SDS011;143;51.634;7.112;2023-07-20T06:13:21;8.37;;;5.20;;
313;SDS011;143;51.634;7.112;2023-07-20T06:15:47;8.40;;;5.50;;
313;SDS011;143;51.634;7.112;2023-07-20T06:18:13;6.70;;;4.90;;
313;SDS011;143;51.634;7.112;2023-07-20T06:20:38;11.17;;;5.13;;
313;SDS011;143;51.634;7.112;2023-07-20T06:23:04;10.60;;;5.03;;
313;SDS011;143;51.634;7.112;2023-07-20T06:25:30;7.80;;;5.57;;
313;SDS011;143;51.634;7.112;2023-07-20T06:27:56;7.00;;;5.17;;
313;SDS011;143;51.634;7.112;2023-07-20T06:30:22;10.73;;;6.00;;
313;SDS011;143;51.634;7.112;2023-07-20T06:32:48;6.90;;;5.63;;
313;SDS011;143;51.634;7.112;2023-07-20T06:35:14;11.60;;;6.47;;
313;SDS011;143;51.634;7.112;2023-07-20T06:37:40;9.37;;;6.27;;
313;SDS011;143;51.634;7.112;2023-07-20T06:40:06;10.40;;;6.40;;
313;SDS011;143;51.634;7.112;2023-07-20T06:42:34;7.93;;;5.90;;
313;SDS011;143;51.634;7.112;2023-07-20T06:44:59;6.57;;;5.20;;
313;SDS011;143;51.634;7.112;2023-07-20T06:47:25;7.17;;;6.20;;
313;SDS011;143;51.634;7.112;2023-07-20T06:49:51;11.27;;;6.53;;
313;SDS011;143;51.634;7.112;2023-07-20T06:52:17;8.07;;;6.07;;
313;SDS011;143;51.634;7.112;2023-07-20T06:54:43;8.30;;;5.50;;
313;SDS011;143;51.634;7.112;2023-07-20T06:57:08;7.30;;;5.13;;
313;SDS011;143;51.634;7.112;2023-07-20T06:59:34;6.77;;;5.60;;
313;SDS011;143;51.634;7.112;2023-07-20T07:01:59;8.00;;;6.07;;
313;SDS011;143;51.634;7.112;2023-07-20T07:04:25;6.40;;;4.67;;
313;SDS011;143;51.634;7.112;2023-07-20T07:06:52;9.53;;;4.70;;
313;SDS011;143;51.634;7.112;2023-07-20T07:09:17;6.10;;;4.87;;
313;SDS011;143;51.634;7.112;2023-07-20T07:11:43;7.27;;;4.87;;
313;SDS011;143;51.634;7.112;2023-07-20T07:14:09;8.17;;;5.17;;
313;SDS011;143;51.634;7.112;2023-07-20T07:16:37;5.60;;;4.90;;
313;SDS011;143;51.634;7.112;2023-07-20T07:19:03;5.93;;;4.63;;
313;SDS011;143;51.634;7.112;2023-07-20T07:21:30;10.10;;;6.00;;
313;SDS011;143;51.634;7.112;2023-07-20T07:23:56;5.77;;;4.53;;
313;SDS011;143;51.634;7.112;2023-07-20T07:26:22;6.60;;;3.83;;
313;SDS011;143;51.634;7.112;2023-07-20T07:28:49;5.10;;;4.40;;
313;SDS011;143;51.634;7.112;2023-07-20T07:31:14;5.43;;;4.53;;
313;SDS011;143;51.634;7.112;2023-07-20T07:33:40;8.03;;;4.70;;
313;SDS011;143;51.634;7.112;2023-07-20T07:36:06;7.13;;;4.23;;
313;SDS011;143;51.634;7.112;2023-07-20T07:38:32;4.80;;;3.60;;
313;SDS011;143;51.634;7.112;2023-07-20T07:40:58;4.97;;;3.63;;
313;SDS011;143;51.634;7.112;2023-07-20T07:43:24;5.90;;;2.90;;
313;SDS011;143;51.634;7.112;2023-07-20T07:45:49;6.17;;;2.30;;
313;SDS011;143;51.634;7.112;2023-07-20T07:48:15;2.33;;;2.00;;
313;SDS011;143;51.634;7.112;2023-07-20T07:50:42;5.83;;;1.70;;
313;SDS011;143;51.634;7.112;2023-07-20T07:53:07;2.33;;;1.57;;
313;SDS011;143;51.634;7.112;2023-07-20T07:55:36;6.27;;;1.73;;
313;SDS011;143;51.634;7.112;2023-07-20T07:58:01;4.87;;;2.00;;
313;SDS011;143;51.634;7.112;2023-07-20T08:00:27;4.10;;;2.10;;
313;SDS011;143;51.634;7.112;2023-07-20T08:02:53;2.73;;;2.03;;
313;SDS011;143;51.634;7.112;2023-07-20T08:05:18;2.63;;;1.90;;
313;SDS011;143;51.634;7.112;2023-07-20T08:07:44;3.73;;;1.23;;
313;SDS011;143;51.634;7.112;2023-07-20T08:10:10;3.40;;;1.33;;
313;SDS011;143;51.634;7.112;2023-07-20T08:12:36;3.73;;;1.30;;
313;SDS011;143;51.634;7.112;2023-07-20T08:15:02;4.10;;;1.50;;
313;SDS011;143;51.634;7.112;2023-07-20T08:17:29;2.13;;;1.50;;
313;SDS011;143;51.634;7.112;2023-07-20T08:19:54;3.20;;;1.43;;
313;SDS011;143;51.634;7.112;2023-07-20T08:22:20;3.20;;;1.50;;
313;SDS011;143;51.634;7.112;2023-07-20T08:24:46;1.80;;;1.50;;
313;SDS011;143;51.634;7.112;2023-07-20T08:27:11;1.70;;;1.13;;
313;SDS011;143;51.634;7.112;2023-07-20T08:29:37;3.23;;;1.67;;
313;SDS011;143;51.634;7.112;2023-07-20T08:32:03;3.37;;;1.37;;
313;SDS011;143;51.634;7.112;2023-07-20T08:34:30;2.00;;;1.13;;
313;SDS011;143;51.634;7.112;2023-07-20T08:36:56;2.30;;;1.37;;
313;SDS011;143;51.634;7.112;2023-07-20T08:39:23;4.63;;;1.50;;
313;SDS011;143;51.634;7.112;2023-07-20T08:41:49;2.47;;;1.40;;
313;SDS011;143;51.634;7.112;2023-07-20T08:44:16;2.40;;;1.60;;
313;SDS011;143;51.634;7.112;2023-07-20T08:46:42;2.50;;;1.70;;
313;SDS011;143;51.634;7.112;2023-07-20T08:49:08;1.40;;;1.10;;
313;SDS011;143;51.634;7.112;2023-07-20T08:51:36;3.63;;;1.30;;
313;SDS011;143;51.634;7.112;2023-07-20T08:54:02;2.07;;;1.20;;
313;SDS011;143;51.634;7.112;2023-07-20T08:56:28;2.60;;;1.50;;
313;SDS011;143;51.634;7.112;2023-07-20T08:58:56;3.77;;;1.40;;
313;SDS011;143;51.634;7.112;2023-07-20T09:01:23;1.10;;;0.80;;
313;SDS011;143;51.634;7.112;2023-07-20T09:03:50;1.40;;;0.97;;
313;SDS011;143;51.634;7.112;2023-07-20T09:06:16;1.50;;;1.20;;
313;SDS011;143;51.634;7.112;2023-07-20T09:08:41;1.77;;;1.30;;
313;SDS011;143;51.634;7.112;2023-07-20T09:11:08;2.30;;;1.10;;
313;SDS011;143;51.634;7.112;2023-07-20T09:13:37;2.83;;;1.63;;
313;SDS011;143;51.634;7.112;2023-07-20T09:16:03;2.17;;;1.13;;
313;SDS011;143;51.634;7.112;2023-07-20T09:18:30;2.27;;;1.53;;
313;SDS011;143;51.634;7.112;2023-07-20T09:21:03;1.60;;;1.43;;
313;SDS011;143;51.634;7.112;2023-07-20T09:23:31;3.30;;;1.57;;
313;SDS011;143;51.634;7.112;2023-07-20T09:26:13;1.67;;;1.30;;
313;SDS011;143;51.634;7.112;2023-07-20T09:28:58;3.73;;;1.10;;
313;SDS011;143;51.634;7.112;2023-07-20T09:31:24;2.23;;;1.70;;
313;SDS011;143;51.634;7.112;2023-07-20T09:33:50;2.10;;;1.33;;
313;SDS011;143;51.634;7.112;2023-07-20T09:36:17;3.10;;;1.40;;
313;SDS011;143;51.634;7.112;2023-07-20T09:38:43;1.77;;;1.20;;
313;SDS011;143;51.634;7.112;2023-07-20T09:41:15;1.20;;;1.00;;
313;SDS011;143;51.634;7.112;2023-07-20T09:43:43;1.60;;;1.00;;
313;SDS011;143;51.634;7.112;2023-07-20T09:46:10;1.60;;;1.07;;
313;SDS011;143;51.634;7.112;2023-07-20T09:48:36;1.30;;;1.00;;
313;SDS011;143;51.634;7.112;2023-07-20T09:51:02;2.30;;;1.17;;
313;SDS011;143;51.634;7.112;2023-07-20T09:53:30;1.50;;;1.00;;
313;SDS011;143;51.634;7.112;2023-07-20T09:55:58;2.03;;;1.00;;
313;SDS011;143;51.634;7.112;2023-07-20T09:58:25;1.20;;;0.80;;
313;SDS011;143;51.634;7.112;2023-07-20T10:00:52;1.23;;;0.90;;
313;SDS011;143;51.634;7.112;2023-07-20T10:03:22;3.17;;;0.97;;
313;SDS011;143;51.634;7.112;2023-07-20T10:05:57;2.43;;;1.10;;
313;SDS011;143;51.634;7.112;2023-07-20T10:08:28;1.60;;;0.80;;
313;SDS011;143;51.634;7.112;2023-07-20T10:10:57;5.43;;;1.40;;
313;SDS011;143;51.634;7.112;2023-07-20T10:13:26;1.87;;;1.07;;
313;SDS011;143;51.634;7.112;2023-07-20T10:16:01;2.50;;;1.10;;
313;SDS011;143;51.634;7.112;2023-07-20T10:21:09;2.10;;;0.80;;
313;SDS011;143;51.634;7.112;2023-07-20T10:23:35;1.57;;;0.90;;
313;SDS011;143;51.634;7.112;2023-07-20T10:26:01;2.70;;;1.00;;
313;SDS011;143;51.634;7.112;2023-07-20T10:28:28;3.10;;;1.00;;
313;SDS011;143;51.634;7.112;2023-07-20T10:30:54;3.63;;;0.97;;
313;SDS011;143;51.634;7.112;2023-07-20T10:33:19;2.13;;;0.70;;
313;SDS011;143;51.634;7.112;2023-07-20T10:35:56;1.43;;;0.80;;
313;SDS011;143;51.634;7.112;2023-07-20T10:38:39;6.93;;;1.00;;
313;SDS011;143;51.634;7.112;2023-07-20T10:41:29;5.03;;;1.10;;
313;SDS011;143;51.634;7.112;2023-07-20T10:44:08;1.30;;;1.00;;
313;SDS011;143;51.634;7.112;2023-07-20T10:49:07;4.27;;;1.00;;
313;SDS011;143;51.634;7.112;2023-07-20T10:51:44;4.60;;;0.97;;
313;SDS011;143;51.634;7.112;2023-07-20T10:56:41;1.93;;;1.33;;
313;SDS011;143;51.634;7.112;2023-07-20T10:59:17;4.03;;;1.10;;
313;SDS011;143;51.634;7.112;2023-07-20T11:01:47;1.60;;;0.70;;
313;SDS011;143;51.634;7.112;2023-07-20T11:04:16;2.50;;;0.70;;
313;SDS011;143;51.634;7.112;2023-07-20T11:06:45;1.10;;;0.70;;
313;SDS011;143;51.634;7.112;2023-07-20T11:09:12;1.50;;;0.80;;
313;SDS011;143;51.634;7.112;2023-07-20T11:11:41;1.70;;;1.10;;
313;SDS011;143;51.634;7.112;2023-07-20T11:14:08;2.20;;;0.97;;
313;SDS011;143;51.634;7.112;2023-07-20T11:16:57;5.37;;;1.00;;
313;SDS011;143;51.634;7.112;2023-07-20T11:19:39;1.40;;;0.77;;
313;SDS011;143;51.634;7.112;2023-07-20T11:22:08;2.10;;;1.10;;
313;SDS011;143;51.634;7.112;2023-07-20T11:24:37;1.80;;;0.90;;
313;SDS011;143;51.634;7.112;2023-07-20T11:27:04;1.50;;;0.90;;
313;SDS011;143;51.634;7.112;2023-07-20T11:29:30;3.90;;;0.97;;
313;SDS011;143;51.634;7.112;2023-07-20T11:31:56;1.20;;;0.70;;
313;SDS011;143;51.634;7.112;2023-07-20T11:34:23;2.30;;;0.83;;
313;SDS011;143;51.634;7.112;2023-07-20T11:36:50;1.70;;;0.80;;
313;SDS011;143;51.634;7.112;2023-07-20T11:39:17;2.10;;;0.87;;
313;SDS011;143;51.634;7.112;2023-07-20T11:41:47;2.07;;;0.90;;
313;SDS011;143;51.634;7.112;2023-07-20T11:44:18;1.47;;;1.10;;
313;SDS011;143;51.634;7.112;2023-07-20T11:46:45;1.53;;;0.90;;
313;SDS011;143;51.634;7.112;2023-07-20T11:49:11;2.20;;;1.10;;
313;SDS011;143;51.634;7.112;2023-07-20T11:51:38;1.50;;;0.90;;
313;SDS011;143;51.634;7.112;2023-07-20T11:54:06;1.30;;;0.80;;
313;SDS011;143;51.634;7.112;2023-07-20T11:56:33;1.80;;;0.90;;
313;SDS011;143;51.634;7.112;2023-07-20T11:58:58;1.53;;;0.90;;
313;SDS011;143;51.634;7.112;2023-07-20T12:01:26;1.70;;;1.00;;
313;SDS011;143;51.634;7.112;2023-07-20T12:04:05;1.23;;;0.80;;
313;SDS011;143;51.634;7.112;2023-07-20T12:06:32;1.63;;;0.87;;
313;SDS011;143;51.634;7.112;2023-07-20T12:08:58;8.50;;;0.97;;
313;SDS011;143;51.634;7.112;2023-07-20T12:11:31;3.47;;;1.00;;
313;SDS011;143;51.634;7.112;2023-07-20T12:14:01;1.50;;;0.90;;
313;SDS011;143;51.634;7.112;2023-07-20T12:16:31;1.20;;;0.70;;
313;SDS011;143;51.634;7.112;2023-07-20T12:19:01;1.30;;;0.80;;
313;SDS011;143;51.634;7.112;2023-07-20T12:21:28;1.50;;;0.90;;
313;SDS011;143;51.634;7.112;2023-07-20T12:23:55;1.00;;;0.60;;
313;SDS011;143;51.634;7.112;2023-07-20T12:26:22;1.90;;;0.80;;
313;SDS011;143;51.634;7.112;2023-07-20T12:28:49;1.20;;;0.80;;
313;SDS011;143;51.634;7.112;2023-07-20T12:31:15;3.17;;;0.80;;
313;SDS011;143;51.634;7.112;2023-07-20T12:33:41;1.20;;;0.97;;
313;SDS011;143;51.634;7.112;2023-07-20T12:36:07;2.60;;;0.83;;
313;SDS011;143;51.634;7.112;2023-07-20T12:38:33;1.27;;;0.70;;
313;SDS011;143;51.634;7.112;2023-07-20T12:41:00;1.23;;;0.80;;
313;SDS011;143;51.634;7.112;2023-07-20T12:43:27;2.90;;;0.90;;
313;SDS011;143;51.634;7.112;2023-07-20T12:45:53;1.53;;;0.93;;
313;SDS011;143;51.634;7.112;2023-07-20T12:48:20;1.40;;;0.90;;
313;SDS011;143;51.634;7.112;2023-07-20T12:50:45;1.10;;;0.70;;
313;SDS011;143;51.634;7.112;2023-07-20T12:53:11;2.10;;;1.03;;
313;SDS011;143;51.634;7.112;2023-07-20T12:55:37;1.37;;;0.90;;
313;SDS011;143;51.634;7.112;2023-07-20T12:58:04;2.40;;;1.23;;
313;SDS011;143;51.634;7.112;2023-07-20T13:00:30;1.00;;;0.60;;
313;SDS011;143;51.634;7.112;2023-07-20T13:02:56;2.90;;;0.80;;
313;SDS011;143;51.634;7.112;2023-07-20T13:05:23;2.13;;;1.20;;
313;SDS011;143;51.634;7.112;2023-07-20T13:07:48;1.30;;;0.93;;
313;SDS011;143;51.634;7.112;2023-07-20T13:10:14;2.20;;;0.83;;
313;SDS011;143;51.634;7.112;2023-07-20T13:12:40;1.70;;;0.90;;
313;SDS011;143;51.634;7.112;2023-07-20T13:15:06;3.40;;;1.13;;
313;SDS011;143;51.634;7.112;2023-07-20T13:17:34;1.47;;;0.90;;
313;SDS011;143;51.634;7.112;2023-07-20T13:20:00;2.40;;;0.70;;
313;SDS011;143;51.634;7.112;2023-07-20T13:22:29;1.70;;;1.10;;
313;SDS011;143;51.634;7.112;2023-07-20T13:24:55;1.17;;;0.70;;
313;SDS011;143;51.634;7.112;2023-07-20T13:27:21;1.00;;;0.60;;
313;SDS011;143;51.634;7.112;2023-07-20T13:29:47;2.03;;;0.80;;
313;SDS011;143;51.634;7.112;2023-07-20T13:32:13;1.20;;;0.80;;
313;SDS011;143;51.634;7.112;2023-07-20T13:34:43;2.50;;;0.83;;
313;SDS011;143;51.634;7.112;2023-07-20T13:37:10;2.17;;;0.93;;
313;SDS011;143;51.634;7.112;2023-07-20T13:39:36;3.17;;;0.87;;
313;SDS011;143;51.634;7.112;2023-07-20T13:42:02;1.60;;;0.87;;
313;SDS011;143;51.634;7.112;2023-07-20T13:44:30;1.93;;;0.70;;
313;SDS011;143;51.634;7.112;2023-07-20T13:46:56;1.43;;;0.90;;
313;SDS011;143;51.634;7.112;2023-07-20T13:49:21;1.30;;;0.90;;
313;SDS011;143;51.634;7.112;2023-07-20T13:51:47;1.20;;;0.70;;
313;SDS011;143;51.634;7.112;2023-07-20T13:54:13;2.30;;;0.93;;
313;SDS011;143;51.634;7.112;2023-07-20T13:56:39;2.90;;;0.90;;
313;SDS011;143;51.634;7.112;2023-07-20T13:59:04;1.70;;;0.90;;
313;SDS011;143;51.634;7.112;2023-07-20T14:01:30;3.27;;;1.17;;
313;SDS011;143;51.634;7.112;2023-07-20T14:03:58;3.20;;;0.80;;
313;SDS011;143;51.634;7.112;2023-07-20T14:06:24;1.60;;;1.10;;
313;SDS011;143;51.634;7.112;2023-07-20T14:08:50;2.90;;;0.90;;
313;SDS011;143;51.634;7.112;2023-07-20T14:11:18;3.40;;;0.90;;
313;SDS011;143;51.634;7.112;2023-07-20T14:13:43;2.27;;;0.90;;
313;SDS011;143;51.634;7.112;2023-07-20T14:16:09;1.30;;;0.73;;
313;SDS011;143;51.634;7.112;2023-07-20T14:18:35;1.87;;;0.80;;
313;SDS011;143;51.634;7.112;2023-07-20T14:21:01;2.60;;;0.80;;
313;SDS011;143;51.634;7.112;2023-07-20T14:23:28;3.03;;;1.00;;
313;SDS011;143;51.634;7.112;2023-07-20T14:25:54;1.10;;;0.80;;
313;SDS011;143;51.634;7.112;2023-07-20T14:28:20;1.97;;;1.00;;
313;SDS011;143;51.634;7.112;2023-07-20T14:30:46;2.07;;;1.33;;
313;SDS011;143;51.634;7.112;2023-07-20T14:33:12;2.03;;;0.83;;
313;SDS011;143;51.634;7.112;2023-07-20T14:35:37;1.10;;;0.83;;
313;SDS011;143;51.634;7.112;2023-07-20T14:38:03;2.33;;;1.00;;
313;SDS011;143;51.634;7.112;2023-07-20T14:40:29;1.57;;;0.80;;
313;SDS011;143;51.634;7.112;2023-07-20T14:42:58;1.47;;;0.70;;
313;SDS011;143;51.634;7.112;2023-07-20T14:45:28;5.13;;;1.10;;
313;SDS011;143;51.634;7.112;2023-07-20T14:47:54;3.53;;;0.90;;
313;SDS011;143;51.634;7.112;2023-07-20T14:50:20;1.67;;;0.90;;
313;SDS011;143;51.634;7.112;2023-07-20T14:52:46;2.60;;;1.00;;
313;SDS011;143;51.634;7.112;2023-07-20T14:55:12;1.50;;;0.80;;
313;SDS011;143;51.634;7.112;2023-07-20T14:57:38;1.73;;;1.03;;
313;SDS011;143;51.634;7.112;2023-07-20T15:00:04;2.70;;;0.90;;
313;SDS011;143;51.634;7.112;2023-07-20T15:02:33;2.03;;;1.00;;
313;SDS011;143;51.634;7.112;2023-07-20T15:04:59;1.90;;;0.80;;
313;SDS011;143;51.634;7.112;2023-07-20T15:07:25;1.37;;;0.80;;
313;SDS011;143;51.634;7.112;2023-07-20T15:09:51;1.97;;;1.00;;
313;SDS011;143;51.634;7.112;2023-07-20T15:12:16;8.90;;;1.40;;
313;SDS011;143;51.634;7.112;2023-07-20T15:14:42;4.07;;;1.13;;
313;SDS011;143;51.634;7.112;2023-07-20T15:17:09;1.73;;;1.20;;
313;SDS011;143;51.634;7.112;2023-07-20T15:19:35;2.30;;;1.00;;
313;SDS011;143;51.634;7.112;2023-07-20T15:22:01;2.30;;;1.00;;
313;SDS011;143;51.634;7.112;2023-07-20T15:24:28;1.23;;;0.87;;
313;SDS011;143;51.634;7.112;2023-07-20T15:26:54;2.23;;;1.30;;
313;SDS011;143;51.634;7.112;2023-07-20T15:29:20;2.53;;;1.03;;
313;SDS011;143;51.634;7.112;2023-07-20T15:31:46;2.00;;;1.07;;
313;SDS011;143;51.634;7.112;2023-07-20T15:34:13;2.10;;;1.20;;
313;SDS011;143;51.634;7.112;2023-07-20T15:36:40;1.97;;;1.00;;
313;SDS011;143;51.634;7.112;2023-07-20T15:39:06;1.90;;;1.07;;
313;SDS011;143;51.634;7.112;2023-07-20T15:41:32;3.63;;;1.40;;
313;SDS011;143;51.634;7.112;2023-07-20T15:43:58;2.53;;;1.20;;
313;SDS011;143;51.634;7.112;2023-07-20T15:49:04;1.50;;;0.90;;
313;SDS011;143;51.634;7.112;2023-07-20T15:51:31;3.00;;;0.97;;
313;SDS011;143;51.634;7.112;2023-07-20T15:53:57;3.00;;;0.90;;
313;SDS011;143;51.634;7.112;2023-07-20T15:56:23;2.40;;;0.87;;